sensor_id;sensor_type;location;lat;lon;timestamp;temperature;humidity
62589;DHT22;58504;48.770;9.148;2023-06-14T00:01:58;24.30;50.20
62589;DHT22;58504;48.770;9.148;2023-06-14T00:04:25;24.30;50.20
62589;DHT22;58504;48.770;9.148;2023-06-14T00:06:53;24.30;50.20
62589;DHT22;58504;48.770;9.148;2023-06-14T00:09:22;24.30;50.10
62589;DHT22;58504;48.770;9.148;2023-06-14T00:11:48;24.30;50.10
62589;DHT22;58504;48.770;9.148;2023-06-14T00:14:15;24.40;50.10
62589;DHT22;58504;48.770;9.148;2023-06-14T00:16:42;24.30;50.00
62589;DHT22;58504;48.770;9.148;2023-06-14T00:19:09;24.30;50.10
62589;DHT22;58504;48.770;9.148;2023-06-14T00:21:36;24.30;50.10
62589;DHT22;58504;48.770;9.148;2023-06-14T00:24:05;24.30;50.10
62589;DHT22;58504;48.770;9.148;2023-06-14T00:26:31;24.30;50.70
62589;DHT22;58504;48.770;9.148;2023-06-14T00:28:58;24.30;50.20
62589;DHT22;58504;48.770;9.148;2023-06-14T00:31:25;24.30;50.20
62589;DHT22;58504;48.770;9.148;2023-06-14T00:33:52;24.30;50.20
62589;DHT22;58504;48.770;9.148;2023-06-14T00:36:18;24.30;50.20
62589;DHT22;58504;48.770;9.148;2023-06-14T00:38:45;24.30;50.20
62589;DHT22;58504;48.770;9.148;2023-06-14T00:41:13;24.30;50.20
62589;DHT22;58504;48.770;9.148;2023-06-14T00:43:40;24.30;50.20
62589;DHT22;58504;48.770;9.148;2023-06-14T00:46:07;24.30;50.30
62589;DHT22;58504;48.770;9.148;2023-06-14T00:48:34;24.30;50.20
62589;DHT22;58504;48.770;9.148;2023-06-14T00:51:02;24.20;50.20
62589;DHT22;58504;48.770;9.148;2023-06-14T00:53:30;24.20;50.20
62589;DHT22;58504;48.770;9.148;2023-06-14T00:55:59;24.20;50.20
62589;DHT22;58504;48.770;9.148;2023-06-14T00:58:28;24.30;50.20
62589;DHT22;58504;48.770;9.148;2023-06-14T01:00:55;24.20;50.20
62589;DHT22;58504;48.770;9.148;2023-06-14T01:03:23;24.20;50.20
62589;DHT22;58504;48.770;9.148;2023-06-14T01:05:56;24.20;50.20
62589;DHT22;58504;48.770;9.148;2023-06-14T01:08:31;24.30;50.30
62589;DHT22;58504;48.770;9.148;2023-06-14T01:11:07;24.20;50.20
62589;DHT22;58504;48.770;9.148;2023-06-14T01:13:37;24.30;50.30
62589;DHT22;58504;48.770;9.148;2023-06-14T01:16:05;24.20;50.20
62589;DHT22;58504;48.770;9.148;2023-06-14T01:18:33;24.20;50.20
62589;DHT22;58504;48.770;9.148;2023-06-14T01:21:00;24.20;50.20
62589;DHT22;58504;48.770;9.148;2023-06-14T01:23:32;24.20;50.20
62589;DHT22;58504;48.770;9.148;2023-06-14T01:26:00;24.20;50.20
62589;DHT22;58504;48.770;9.148;2023-06-14T01:28:28;24.20;50.30
62589;DHT22;58504;48.770;9.148;2023-06-14T01:31:00;24.20;50.20
62589;DHT22;58504;48.770;9.148;2023-06-14T01:33:30;24.20;50.30
62589;DHT22;58504;48.770;9.148;2023-06-14T01:35:58;24.20;50.20
62589;DHT22;58504;48.770;9.148;2023-06-14T01:38:26;24.20;50.20
62589;DHT22;58504;48.770;9.148;2023-06-14T01:40:56;24.20;50.30
62589;DHT22;58504;48.770;9.148;2023-06-14T01:43:25;24.20;50.30
62589;DHT22;58504;48.770;9.148;2023-06-14T01:45:53;24.20;50.30
62589;DHT22;58504;48.770;9.148;2023-06-14T01:48:21;24.20;50.30
62589;DHT22;58504;48.770;9.148;2023-06-14T01:50:48;24.20;50.30
62589;DHT22;58504;48.770;9.148;2023-06-14T01:53:15;24.20;50.40
62589;DHT22;58504;48.770;9.148;2023-06-14T01:55:42;24.10;50.30
62589;DHT22;58504;48.770;9.148;2023-06-14T01:58:15;24.10;50.30
62589;DHT22;58504;48.770;9.148;2023-06-14T02:00:42;24.10;50.30
62589;DHT22;58504;48.770;9.148;2023-06-14T02:03:10;24.10;50.30
62589;DHT22;58504;48.770;9.148;2023-06-14T02:05:38;24.10;50.30
62589;DHT22;58504;48.770;9.148;2023-06-14T02:08:05;24.10;50.30
62589;DHT22;58504;48.770;9.148;2023-06-14T02:10:32;24.10;50.30
62589;DHT22;58504;48.770;9.148;2023-06-14T02:12:59;24.10;50.30
62589;DHT22;58504;48.770;9.148;2023-06-14T02:15:27;24.20;50.30
62589;DHT22;58504;48.770;9.148;2023-06-14T02:18:00;24.10;50.30
62589;DHT22;58504;48.770;9.148;2023-06-14T02:20:27;24.10;50.30
62589;DHT22;58504;48.770;9.148;2023-06-14T02:22:54;24.10;50.30
62589;DHT22;58504;48.770;9.148;2023-06-14T02:25:21;24.10;50.30
62589;DHT22;58504;48.770;9.148;2023-06-14T02:27:48;24.10;50.30
62589;DHT22;58504;48.770;9.148;2023-06-14T02:30:15;24.10;50.30
62589;DHT22;58504;48.770;9.148;2023-06-14T02:32:43;24.10;50.30
62589;DHT22;58504;48.770;9.148;2023-06-14T02:35:10;24.10;50.30
62589;DHT22;58504;48.770;9.148;2023-06-14T02:37:37;24.10;50.30
62589;DHT22;58504;48.770;9.148;2023-06-14T02:40:05;24.10;50.30
62589;DHT22;58504;48.770;9.148;2023-06-14T02:42:32;24.10;50.30
62589;DHT22;58504;48.770;9.148;2023-06-14T02:44:59;24.10;50.30
62589;DHT22;58504;48.770;9.148;2023-06-14T02:47:26;24.10;50.30
62589;DHT22;58504;48.770;9.148;2023-06-14T02:49:54;24.10;50.40
62589;DHT22;58504;48.770;9.148;2023-06-14T02:52:20;24.00;50.30
62589;DHT22;58504;48.770;9.148;2023-06-14T02:54:47;24.00;50.30
62589;DHT22;58504;48.770;9.148;2023-06-14T02:57:14;24.00;50.30
62589;DHT22;58504;48.770;9.148;2023-06-14T02:59:41;24.00;50.30
62589;DHT22;58504;48.770;9.148;2023-06-14T03:02:08;24.00;50.30
62589;DHT22;58504;48.770;9.148;2023-06-14T03:04:35;24.00;50.30
62589;DHT22;58504;48.770;9.148;2023-06-14T03:07:04;24.00;50.30
62589;DHT22;58504;48.770;9.148;2023-06-14T03:09:35;24.00;50.30
62589;DHT22;58504;48.770;9.148;2023-06-14T03:12:02;24.00;50.30
62589;DHT22;58504;48.770;9.148;2023-06-14T03:14:29;24.00;50.30
62589;DHT22;58504;48.770;9.148;2023-06-14T03:16:56;24.00;50.30
62589;DHT22;58504;48.770;9.148;2023-06-14T03:19:24;24.00;50.30
62589;DHT22;58504;48.770;9.148;2023-06-14T03:21:51;24.00;50.40
62589;DHT22;58504;48.770;9.148;2023-06-14T03:24:20;24.00;50.90
62589;DHT22;58504;48.770;9.148;2023-06-14T03:26:47;24.00;50.40
62589;DHT22;58504;48.770;9.148;2023-06-14T03:29:13;24.00;50.30
62589;DHT22;58504;48.770;9.148;2023-06-14T03:31:56;24.00;50.40
62589;DHT22;58504;48.770;9.148;2023-06-14T03:34:23;24.00;50.40
62589;DHT22;58504;48.770;9.148;2023-06-14T03:36:50;24.00;50.40
62589;DHT22;58504;48.770;9.148;2023-06-14T03:39:17;24.00;50.40
62589;DHT22;58504;48.770;9.148;2023-06-14T03:41:45;24.00;50.40
62589;DHT22;58504;48.770;9.148;2023-06-14T03:44:13;24.00;51.00
62589;DHT22;58504;48.770;9.148;2023-06-14T03:46:40;24.00;50.40
62589;DHT22;58504;48.770;9.148;2023-06-14T03:49:07;24.00;50.40
62589;DHT22;58504;48.770;9.148;2023-06-14T03:51:34;24.00;50.40
62589;DHT22;58504;48.770;9.148;2023-06-14T03:54:01;24.00;50.40
62589;DHT22;58504;48.770;9.148;2023-06-14T03:56:27;24.00;50.40
62589;DHT22;58504;48.770;9.148;2023-06-14T03:58:55;24.00;50.40
62589;DHT22;58504;48.770;9.148;2023-06-14T04:01:22;24.00;50.40
62589;DHT22;58504;48.770;9.148;2023-06-14T04:03:55;24.00;50.40
62589;DHT22;58504;48.770;9.148;2023-06-14T04:06:23;24.00;50.40
62589;DHT22;58504;48.770;9.148;2023-06-14T04:08:57;24.00;50.40
62589;DHT22;58504;48.770;9.148;2023-06-14T04:11:29;24.00;50.40
62589;DHT22;58504;48.770;9.148;2023-06-14T04:13:58;24.00;50.40
62589;DHT22;58504;48.770;9.148;2023-06-14T04:16:25;24.00;51.00
62589;DHT22;58504;48.770;9.148;2023-06-14T04:18:51;24.00;50.40
62589;DHT22;58504;48.770;9.148;2023-06-14T04:21:18;24.00;50.40
62589;DHT22;58504;48.770;9.148;2023-06-14T04:23:45;24.00;50.40
62589;DHT22;58504;48.770;9.148;2023-06-14T04:26:12;24.00;50.40
62589;DHT22;58504;48.770;9.148;2023-06-14T04:28:40;24.10;50.50
62589;DHT22;58504;48.770;9.148;2023-06-14T04:31:08;24.10;50.40
62589;DHT22;58504;48.770;9.148;2023-06-14T04:33:35;24.10;50.30
62589;DHT22;58504;48.770;9.148;2023-06-14T04:36:08;24.10;50.30
62589;DHT22;58504;48.770;9.148;2023-06-14T04:38:35;24.10;50.30
62589;DHT22;58504;48.770;9.148;2023-06-14T04:41:02;24.10;50.30
62589;DHT22;58504;48.770;9.148;2023-06-14T04:43:29;24.20;50.30
62589;DHT22;58504;48.770;9.148;2023-06-14T04:45:57;24.20;50.30
62589;DHT22;58504;48.770;9.148;2023-06-14T04:48:25;24.20;50.20
62589;DHT22;58504;48.770;9.148;2023-06-14T04:50:52;24.20;50.20
62589;DHT22;58504;48.770;9.148;2023-06-14T04:53:20;24.20;50.20
62589;DHT22;58504;48.770;9.148;2023-06-14T04:55:48;24.20;50.20
62589;DHT22;58504;48.770;9.148;2023-06-14T04:58:15;24.20;50.10
62589;DHT22;58504;48.770;9.148;2023-06-14T05:00:42;24.20;50.10
62589;DHT22;58504;48.770;9.148;2023-06-14T05:03:09;24.30;50.10
62589;DHT22;58504;48.770;9.148;2023-06-14T05:05:40;24.30;50.10
62589;DHT22;58504;48.770;9.148;2023-06-14T05:08:07;24.30;50.10
62589;DHT22;58504;48.770;9.148;2023-06-14T05:10:34;24.30;50.10
62589;DHT22;58504;48.770;9.148;2023-06-14T05:13:01;24.30;50.00
62589;DHT22;58504;48.770;9.148;2023-06-14T05:15:28;24.30;50.00
62589;DHT22;58504;48.770;9.148;2023-06-14T05:17:55;24.30;50.00
62589;DHT22;58504;48.770;9.148;2023-06-14T05:20:22;24.30;49.90
62589;DHT22;58504;48.770;9.148;2023-06-14T05:22:52;24.30;49.90
62589;DHT22;58504;48.770;9.148;2023-06-14T05:25:19;24.30;49.80
62589;DHT22;58504;48.770;9.148;2023-06-14T05:27:46;24.40;49.80
62589;DHT22;58504;48.770;9.148;2023-06-14T05:30:14;24.40;49.80
62589;DHT22;58504;48.770;9.148;2023-06-14T05:32:41;24.40;49.70
62589;DHT22;58504;48.770;9.148;2023-06-14T05:35:08;24.40;49.70
62589;DHT22;58504;48.770;9.148;2023-06-14T05:37:35;24.40;49.60
62589;DHT22;58504;48.770;9.148;2023-06-14T05:40:04;24.50;49.60
62589;DHT22;58504;48.770;9.148;2023-06-14T05:42:32;24.50;48.50
62589;DHT22;58504;48.770;9.148;2023-06-14T05:44:58;24.50;47.00
62589;DHT22;58504;48.770;9.148;2023-06-14T05:47:25;24.50;46.20
62589;DHT22;58504;48.770;9.148;2023-06-14T05:49:53;24.50;45.80
62589;DHT22;58504;48.770;9.148;2023-06-14T05:52:20;24.50;45.60
62589;DHT22;58504;48.770;9.148;2023-06-14T05:54:47;24.50;45.40
62589;DHT22;58504;48.770;9.148;2023-06-14T05:57:15;24.50;45.20
62589;DHT22;58504;48.770;9.148;2023-06-14T05:59:42;24.60;45.10
62589;DHT22;58504;48.770;9.148;2023-06-14T06:02:09;24.60;45.20
62589;DHT22;58504;48.770;9.148;2023-06-14T06:04:36;24.60;45.40
62589;DHT22;58504;48.770;9.148;2023-06-14T06:07:03;24.60;45.40
62589;DHT22;58504;48.770;9.148;2023-06-14T06:09:30;24.70;45.40
62589;DHT22;58504;48.770;9.148;2023-06-14T06:11:57;24.70;45.10
62589;DHT22;58504;48.770;9.148;2023-06-14T06:14:25;24.70;44.30
62589;DHT22;58504;48.770;9.148;2023-06-14T06:16:53;24.70;44.30
62589;DHT22;58504;48.770;9.148;2023-06-14T06:19:20;24.70;43.60
62589;DHT22;58504;48.770;9.148;2023-06-14T06:21:46;24.70;43.60
62589;DHT22;58504;48.770;9.148;2023-06-14T06:24:13;24.70;44.20
62589;DHT22;58504;48.770;9.148;2023-06-14T06:26:40;24.80;44.90
62589;DHT22;58504;48.770;9.148;2023-06-14T06:29:07;24.80;45.30
62589;DHT22;58504;48.770;9.148;2023-06-14T06:31:35;24.80;45.40
62589;DHT22;58504;48.770;9.148;2023-06-14T06:34:02;24.80;45.30
62589;DHT22;58504;48.770;9.148;2023-06-14T06:36:28;24.80;45.10
62589;DHT22;58504;48.770;9.148;2023-06-14T06:38:55;24.80;45.00
62589;DHT22;58504;48.770;9.148;2023-06-14T06:41:22;24.80;45.00
62589;DHT22;58504;48.770;9.148;2023-06-14T06:43:49;24.80;45.10
62589;DHT22;58504;48.770;9.148;2023-06-14T06:46:16;24.80;45.10
62589;DHT22;58504;48.770;9.148;2023-06-14T06:48:44;24.90;45.00
62589;DHT22;58504;48.770;9.148;2023-06-14T06:51:11;24.90;44.90
62589;DHT22;58504;48.770;9.148;2023-06-14T06:53:39;24.90;44.90
62589;DHT22;58504;48.770;9.148;2023-06-14T06:56:06;24.90;44.90
62589;DHT22;58504;48.770;9.148;2023-06-14T06:58:32;24.90;44.80
62589;DHT22;58504;48.770;9.148;2023-06-14T07:00:59;24.90;44.80
62589;DHT22;58504;48.770;9.148;2023-06-14T07:03:26;24.90;44.70
62589;DHT22;58504;48.770;9.148;2023-06-14T07:05:54;25.00;44.90
62589;DHT22;58504;48.770;9.148;2023-06-14T07:08:21;25.00;44.70
62589;DHT22;58504;48.770;9.148;2023-06-14T07:10:48;25.00;44.80
62589;DHT22;58504;48.770;9.148;2023-06-14T07:13:14;25.00;44.70
62589;DHT22;58504;48.770;9.148;2023-06-14T07:15:41;25.10;44.70
62589;DHT22;58504;48.770;9.148;2023-06-14T07:18:08;25.10;44.60
62589;DHT22;58504;48.770;9.148;2023-06-14T07:20:35;25.10;44.40
62589;DHT22;58504;48.770;9.148;2023-06-14T07:23:05;25.10;44.40
62589;DHT22;58504;48.770;9.148;2023-06-14T07:25:31;25.10;44.30
62589;DHT22;58504;48.770;9.148;2023-06-14T07:27:58;25.20;44.10
62589;DHT22;58504;48.770;9.148;2023-06-14T07:30:25;25.20;44.00
62589;DHT22;58504;48.770;9.148;2023-06-14T07:32:52;25.20;43.90
62589;DHT22;58504;48.770;9.148;2023-06-14T07:35:19;25.40;44.00
62589;DHT22;58504;48.770;9.148;2023-06-14T07:37:46;25.30;43.80
62589;DHT22;58504;48.770;9.148;2023-06-14T07:40:14;25.40;43.70
62589;DHT22;58504;48.770;9.148;2023-06-14T07:42:41;25.50;43.70
62589;DHT22;58504;48.770;9.148;2023-06-14T07:45:09;25.70;43.40
62589;DHT22;58504;48.770;9.148;2023-06-14T07:47:36;25.80;42.70
62589;DHT22;58504;48.770;9.148;2023-06-14T07:50:03;26.00;42.40
62589;DHT22;58504;48.770;9.148;2023-06-14T07:52:30;26.20;42.40
62589;DHT22;58504;48.770;9.148;2023-06-14T07:54:56;26.20;42.40
62589;DHT22;58504;48.770;9.148;2023-06-14T07:57:24;26.20;42.70
62589;DHT22;58504;48.770;9.148;2023-06-14T07:59:51;26.20;43.00
62589;DHT22;58504;48.770;9.148;2023-06-14T08:02:18;26.20;43.10
62589;DHT22;58504;48.770;9.148;2023-06-14T08:04:45;26.20;43.30
62589;DHT22;58504;48.770;9.148;2023-06-14T08:07:12;26.20;43.10
62589;DHT22;58504;48.770;9.148;2023-06-14T08:09:38;26.30;43.30
62589;DHT22;58504;48.770;9.148;2023-06-14T08:12:06;26.30;43.30
62589;DHT22;58504;48.770;9.148;2023-06-14T08:14:36;26.30;43.20
62589;DHT22;58504;48.770;9.148;2023-06-14T08:17:03;26.40;43.30
62589;DHT22;58504;48.770;9.148;2023-06-14T08:19:30;26.40;43.10
62589;DHT22;58504;48.770;9.148;2023-06-14T08:21:57;26.50;43.10
62589;DHT22;58504;48.770;9.148;2023-06-14T08:24:24;26.50;42.90
62589;DHT22;58504;48.770;9.148;2023-06-14T08:26:52;26.60;42.90
62589;DHT22;58504;48.770;9.148;2023-06-14T08:29:19;26.60;42.90
62589;DHT22;58504;48.770;9.148;2023-06-14T08:31:48;26.60;42.80
62589;DHT22;58504;48.770;9.148;2023-06-14T08:34:14;26.60;42.80
62589;DHT22;58504;48.770;9.148;2023-06-14T08:36:41;26.70;42.80
62589;DHT22;58504;48.770;9.148;2023-06-14T08:39:08;26.70;42.80
62589;DHT22;58504;48.770;9.148;2023-06-14T08:41:35;26.70;42.90
62589;DHT22;58504;48.770;9.148;2023-06-14T08:44:03;26.70;42.80
62589;DHT22;58504;48.770;9.148;2023-06-14T08:46:32;26.80;42.60
62589;DHT22;58504;48.770;9.148;2023-06-14T08:49:01;26.80;42.50
62589;DHT22;58504;48.770;9.148;2023-06-14T08:51:31;26.70;42.60
62589;DHT22;58504;48.770;9.148;2023-06-14T08:53:59;26.80;42.70
62589;DHT22;58504;48.770;9.148;2023-06-14T08:56:27;26.70;42.80
62589;DHT22;58504;48.770;9.148;2023-06-14T08:58:55;26.70;42.80
62589;DHT22;58504;48.770;9.148;2023-06-14T09:01:22;26.70;42.90
62589;DHT22;58504;48.770;9.148;2023-06-14T09:03:50;26.70;43.00
62589;DHT22;58504;48.770;9.148;2023-06-14T09:06:19;26.70;43.00
62589;DHT22;58504;48.770;9.148;2023-06-14T09:08:49;26.60;43.00
62589;DHT22;58504;48.770;9.148;2023-06-14T09:11:17;26.60;43.00
62589;DHT22;58504;48.770;9.148;2023-06-14T09:13:44;26.60;43.10
62589;DHT22;58504;48.770;9.148;2023-06-14T09:16:11;26.70;43.20
62589;DHT22;58504;48.770;9.148;2023-06-14T09:18:40;26.60;43.00
62589;DHT22;58504;48.770;9.148;2023-06-14T09:21:10;26.60;42.90
62589;DHT22;58504;48.770;9.148;2023-06-14T09:23:39;26.70;42.90
62589;DHT22;58504;48.770;9.148;2023-06-14T09:26:09;26.70;43.20
62589;DHT22;58504;48.770;9.148;2023-06-14T09:28:36;26.60;43.20
62589;DHT22;58504;48.770;9.148;2023-06-14T09:31:03;26.60;43.30
62589;DHT22;58504;48.770;9.148;2023-06-14T09:33:31;26.60;43.40
62589;DHT22;58504;48.770;9.148;2023-06-14T09:35:58;26.60;43.40
62589;DHT22;58504;48.770;9.148;2023-06-14T09:38:25;26.60;43.40
62589;DHT22;58504;48.770;9.148;2023-06-14T09:40:56;26.60;43.50
62589;DHT22;58504;48.770;9.148;2023-06-14T09:43:23;26.60;43.60
62589;DHT22;58504;48.770;9.148;2023-06-14T09:45:51;26.50;43.70
62589;DHT22;58504;48.770;9.148;2023-06-14T09:48:18;26.50;43.70
62589;DHT22;58504;48.770;9.148;2023-06-14T09:50:46;26.50;43.80
62589;DHT22;58504;48.770;9.148;2023-06-14T09:53:14;26.50;43.90
62589;DHT22;58504;48.770;9.148;2023-06-14T09:55:42;26.60;43.90
62589;DHT22;58504;48.770;9.148;2023-06-14T09:58:10;26.50;43.90
62589;DHT22;58504;48.770;9.148;2023-06-14T10:00:39;26.50;44.00
62589;DHT22;58504;48.770;9.148;2023-06-14T10:03:12;26.50;44.10
62589;DHT22;58504;48.770;9.148;2023-06-14T10:05:42;26.50;44.10
62589;DHT22;58504;48.770;9.148;2023-06-14T10:08:14;26.50;44.70
62589;DHT22;58504;48.770;9.148;2023-06-14T10:10:42;26.40;44.10
62589;DHT22;58504;48.770;9.148;2023-06-14T10:13:11;26.40;44.30
62589;DHT22;58504;48.770;9.148;2023-06-14T10:15:43;26.40;44.30
62589;DHT22;58504;48.770;9.148;2023-06-14T10:18:21;26.30;44.20
62589;DHT22;58504;48.770;9.148;2023-06-14T10:20:58;26.30;44.30
62589;DHT22;58504;48.770;9.148;2023-06-14T10:23:28;26.30;44.50
62589;DHT22;58504;48.770;9.148;2023-06-14T10:25:57;26.30;44.60
62589;DHT22;58504;48.770;9.148;2023-06-14T10:28:26;26.30;44.70
62589;DHT22;58504;48.770;9.148;2023-06-14T10:31:03;26.30;45.00
62589;DHT22;58504;48.770;9.148;2023-06-14T10:33:30;26.30;45.00
62589;DHT22;58504;48.770;9.148;2023-06-14T10:36:24;26.30;45.10
62589;DHT22;58504;48.770;9.148;2023-06-14T10:39:04;26.20;45.20
62589;DHT22;58504;48.770;9.148;2023-06-14T10:41:35;26.20;45.30
62589;DHT22;58504;48.770;9.148;2023-06-14T10:44:32;26.20;45.40
62589;DHT22;58504;48.770;9.148;2023-06-14T10:47:00;26.20;45.70
62589;DHT22;58504;48.770;9.148;2023-06-14T10:49:38;26.20;45.70
62589;DHT22;58504;48.770;9.148;2023-06-14T10:52:08;26.20;45.70
62589;DHT22;58504;48.770;9.148;2023-06-14T10:57:42;26.20;46.30
62589;DHT22;58504;48.770;9.148;2023-06-14T11:00:13;26.10;46.30
62589;DHT22;58504;48.770;9.148;2023-06-14T11:03:28;26.10;46.50
62589;DHT22;58504;48.770;9.148;2023-06-14T11:05:58;26.10;46.80
62589;DHT22;58504;48.770;9.148;2023-06-14T11:11:31;26.00;46.90
62589;DHT22;58504;48.770;9.148;2023-06-14T11:14:00;25.90;46.70
62589;DHT22;58504;48.770;9.148;2023-06-14T11:16:28;25.90;46.80
62589;DHT22;58504;48.770;9.148;2023-06-14T11:18:57;25.90;46.90
62589;DHT22;58504;48.770;9.148;2023-06-14T11:21:24;25.90;46.90
62589;DHT22;58504;48.770;9.148;2023-06-14T11:23:56;25.80;46.90
62589;DHT22;58504;48.770;9.148;2023-06-14T11:26:27;25.80;46.90
62589;DHT22;58504;48.770;9.148;2023-06-14T11:28:57;25.80;46.90
62589;DHT22;58504;48.770;9.148;2023-06-14T11:31:24;25.80;46.90
62589;DHT22;58504;48.770;9.148;2023-06-14T11:33:55;25.80;46.90
62589;DHT22;58504;48.770;9.148;2023-06-14T11:36:22;25.80;46.80
62589;DHT22;58504;48.770;9.148;2023-06-14T11:38:49;25.80;46.70
62589;DHT22;58504;48.770;9.148;2023-06-14T11:41:15;25.90;46.50
62589;DHT22;58504;48.770;9.148;2023-06-14T11:43:42;25.80;46.50
62589;DHT22;58504;48.770;9.148;2023-06-14T11:46:13;25.80;46.50
62589;DHT22;58504;48.770;9.148;2023-06-14T11:48:41;25.80;46.50
62589;DHT22;58504;48.770;9.148;2023-06-14T11:51:09;25.70;46.50
62589;DHT22;58504;48.770;9.148;2023-06-14T11:53:37;25.70;46.60
62589;DHT22;58504;48.770;9.148;2023-06-14T11:56:04;25.70;46.60
62589;DHT22;58504;48.770;9.148;2023-06-14T11:58:31;25.70;46.70
62589;DHT22;58504;48.770;9.148;2023-06-14T12:00:58;25.70;46.70
62589;DHT22;58504;48.770;9.148;2023-06-14T12:03:24;25.60;46.70
62589;DHT22;58504;48.770;9.148;2023-06-14T12:06:02;25.60;46.70
62589;DHT22;58504;48.770;9.148;2023-06-14T12:08:34;25.60;46.70
62589;DHT22;58504;48.770;9.148;2023-06-14T12:11:05;25.60;46.70
62589;DHT22;58504;48.770;9.148;2023-06-14T12:13:34;25.60;46.80
62589;DHT22;58504;48.770;9.148;2023-06-14T12:16:01;25.60;46.90
62589;DHT22;58504;48.770;9.148;2023-06-14T12:18:32;25.50;46.80
62589;DHT22;58504;48.770;9.148;2023-06-14T12:21:00;25.50;46.90
62589;DHT22;58504;48.770;9.148;2023-06-14T12:23:42;25.60;46.90
62589;DHT22;58504;48.770;9.148;2023-06-14T12:26:09;25.60;46.90
62589;DHT22;58504;48.770;9.148;2023-06-14T12:28:36;25.60;47.00
62589;DHT22;58504;48.770;9.148;2023-06-14T12:31:02;25.60;46.90
62589;DHT22;58504;48.770;9.148;2023-06-14T12:33:30;25.60;46.90
62589;DHT22;58504;48.770;9.148;2023-06-14T12:35:57;25.60;46.90
62589;DHT22;58504;48.770;9.148;2023-06-14T12:38:24;25.60;46.80
62589;DHT22;58504;48.770;9.148;2023-06-14T12:40:52;25.60;46.70
62589;DHT22;58504;48.770;9.148;2023-06-14T12:43:19;25.60;46.50
62589;DHT22;58504;48.770;9.148;2023-06-14T12:45:46;25.60;46.40
62589;DHT22;58504;48.770;9.148;2023-06-14T12:48:12;25.60;46.50
62589;DHT22;58504;48.770;9.148;2023-06-14T12:50:39;25.60;46.40
62589;DHT22;58504;48.770;9.148;2023-06-14T12:53:06;25.60;46.50
62589;DHT22;58504;48.770;9.148;2023-06-14T12:55:33;25.60;46.40
62589;DHT22;58504;48.770;9.148;2023-06-14T12:58:01;25.60;46.40
62589;DHT22;58504;48.770;9.148;2023-06-14T13:00:28;25.60;46.40
62589;DHT22;58504;48.770;9.148;2023-06-14T13:02:55;25.60;46.40
62589;DHT22;58504;48.770;9.148;2023-06-14T13:05:22;25.60;46.50
62589;DHT22;58504;48.770;9.148;2023-06-14T13:07:49;25.60;46.40
62589;DHT22;58504;48.770;9.148;2023-06-14T13:10:17;25.60;46.60
62589;DHT22;58504;48.770;9.148;2023-06-14T13:12:44;25.60;46.00
62589;DHT22;58504;48.770;9.148;2023-06-14T13:15:12;25.60;46.10
62589;DHT22;58504;48.770;9.148;2023-06-14T13:17:38;25.60;46.20
62589;DHT22;58504;48.770;9.148;2023-06-14T13:20:06;25.60;46.20
62589;DHT22;58504;48.770;9.148;2023-06-14T13:22:33;25.60;46.30
62589;DHT22;58504;48.770;9.148;2023-06-14T13:25:00;25.60;46.30
62589;DHT22;58504;48.770;9.148;2023-06-14T13:27:27;25.60;46.20
62589;DHT22;58504;48.770;9.148;2023-06-14T13:29:54;25.60;46.10
62589;DHT22;58504;48.770;9.148;2023-06-14T13:32:23;25.60;46.40
62589;DHT22;58504;48.770;9.148;2023-06-14T13:34:50;25.60;46.30
62589;DHT22;58504;48.770;9.148;2023-06-14T13:37:17;25.50;46.40
62589;DHT22;58504;48.770;9.148;2023-06-14T13:39:43;25.60;46.40
62589;DHT22;58504;48.770;9.148;2023-06-14T13:42:10;25.60;46.40
62589;DHT22;58504;48.770;9.148;2023-06-14T13:44:37;25.60;46.50
62589;DHT22;58504;48.770;9.148;2023-06-14T13:47:05;25.60;46.30
62589;DHT22;58504;48.770;9.148;2023-06-14T13:49:33;25.60;46.30
62589;DHT22;58504;48.770;9.148;2023-06-14T13:52:01;25.60;46.30
62589;DHT22;58504;48.770;9.148;2023-06-14T13:54:28;25.60;46.30
62589;DHT22;58504;48.770;9.148;2023-06-14T13:56:55;25.60;46.40
62589;DHT22;58504;48.770;9.148;2023-06-14T13:59:21;25.60;46.40
62589;DHT22;58504;48.770;9.148;2023-06-14T14:01:48;25.60;46.40
62589;DHT22;58504;48.770;9.148;2023-06-14T14:04:15;25.70;46.40
62589;DHT22;58504;48.770;9.148;2023-06-14T14:06:43;25.60;46.40
62589;DHT22;58504;48.770;9.148;2023-06-14T14:09:11;25.60;46.40
62589;DHT22;58504;48.770;9.148;2023-06-14T14:11:38;25.60;46.50
62589;DHT22;58504;48.770;9.148;2023-06-14T14:14:07;25.60;46.50
62589;DHT22;58504;48.770;9.148;2023-06-14T14:16:33;25.60;46.40
62589;DHT22;58504;48.770;9.148;2023-06-14T14:19:01;25.60;46.40
62589;DHT22;58504;48.770;9.148;2023-06-14T14:21:28;25.60;46.30
62589;DHT22;58504;48.770;9.148;2023-06-14T14:23:56;25.60;46.40
62589;DHT22;58504;48.770;9.148;2023-06-14T14:26:23;25.60;46.40
62589;DHT22;58504;48.770;9.148;2023-06-14T14:28:50;25.60;46.30
62589;DHT22;58504;48.770;9.148;2023-06-14T14:31:17;25.60;46.40
62589;DHT22;58504;48.770;9.148;2023-06-14T14:33:44;25.60;46.40
62589;DHT22;58504;48.770;9.148;2023-06-14T14:36:10;25.50;46.20
62589;DHT22;58504;48.770;9.148;2023-06-14T14:38:40;25.60;46.30
62589;DHT22;58504;48.770;9.148;2023-06-14T14:41:08;25.60;46.40
62589;DHT22;58504;48.770;9.148;2023-06-14T14:43:34;25.50;46.40
62589;DHT22;58504;48.770;9.148;2023-06-14T14:46:01;25.50;46.20
62589;DHT22;58504;48.770;9.148;2023-06-14T14:48:28;25.50;43.00
62589;DHT22;58504;48.770;9.148;2023-06-14T14:50:55;25.50;41.40
62589;DHT22;58504;48.770;9.148;2023-06-14T14:53:21;25.40;41.50
62589;DHT22;58504;48.770;9.148;2023-06-14T14:55:48;25.40;41.10
62589;DHT22;58504;48.770;9.148;2023-06-14T14:58:16;25.40;40.40
62589;DHT22;58504;48.770;9.148;2023-06-14T15:00:43;25.30;40.00
62589;DHT22;58504;48.770;9.148;2023-06-14T15:03:10;25.30;39.60
62589;DHT22;58504;48.770;9.148;2023-06-14T15:05:37;25.30;39.50
62589;DHT22;58504;48.770;9.148;2023-06-14T15:08:04;25.30;39.10
62589;DHT22;58504;48.770;9.148;2023-06-14T15:10:36;25.20;38.90
62589;DHT22;58504;48.770;9.148;2023-06-14T15:13:03;25.20;40.10
62589;DHT22;58504;48.770;9.148;2023-06-14T15:15:31;25.20;41.40
62589;DHT22;58504;48.770;9.148;2023-06-14T15:17:58;25.20;42.30
62589;DHT22;58504;48.770;9.148;2023-06-14T15:20:25;25.20;42.80
62589;DHT22;58504;48.770;9.148;2023-06-14T15:22:52;25.20;43.20
62589;DHT22;58504;48.770;9.148;2023-06-14T15:25:19;25.20;43.40
62589;DHT22;58504;48.770;9.148;2023-06-14T15:27:46;25.20;43.60
62589;DHT22;58504;48.770;9.148;2023-06-14T15:30:13;25.20;43.70
62589;DHT22;58504;48.770;9.148;2023-06-14T15:32:41;25.20;43.90
62589;DHT22;58504;48.770;9.148;2023-06-14T15:35:08;25.20;44.00
62589;DHT22;58504;48.770;9.148;2023-06-14T15:37:35;25.20;44.00
62589;DHT22;58504;48.770;9.148;2023-06-14T15:40:02;25.20;44.20
62589;DHT22;58504;48.770;9.148;2023-06-14T15:42:29;25.10;44.20